KPIH/PIH METAR and TAF weather

Enter ICAO airport designator
Station Type Date Time Source
KPIH METAR 2020/01/28 20:53 UTC NOAA

KPIH 282053Z 20011KT 10SM -RA SCT021 BKN029 OVC037 03/01 A3008 RMK AO2 RAB25 SLP198 P0000 60001 T00280011 56023


Station Type Date Time Source
KPIH Decoded METAR 2020/01/28 20:53 UTC NOAA

POCATELLO REGIONAL AIRPORT, ID, United States (KPIH) 42-55N 112-36W 1359M
Jan 28, 2020 - 03:53 PM EST / 2020.01.28 2053 UTC
Wind: from the SSW (200 degrees) at 13 MPH (11 KT):0
Visibility: 10 mile(s):0
Sky conditions: overcast
Weather: light rain
Precipitation last hour: A trace
Temperature: 37.0 F (2.8 C)
Dew Point: 34.0 F (1.1 C)
Relative Humidity: 88%
Pressure (altimeter): 30.08 in. Hg (1018 hPa)
Pressure tendency: 0.07 inches (2.3 hPa) lower than three hours ago
ob: KPIH 282053Z 20011KT 10SM -RA SCT021 BKN029 OVC037 03/01 A3008 RMK AO2 RAB25 SLP198 P0000 60001 T00280011 56023
cycle: 21

Station Type Date Time Source
KPIH TAF 2020/01/28 19:42 UTC NOAA

TAF
AMD KPIH 281841Z 2819/2918 20012KT 6SM -RA BR FEW010 OVC035
FM282000 20010KT P6SM -RASN OVC025
FM282300 22012KT 4SM -RASN BR BKN015 OVC025
FM290400 22016KT P6SM VCSH BKN025 OVC050
FM291100 25012KT 2SM -SN BKN009 OVC015

Example: see airport list